Terminal Aerodrome Forecast
Issued by NWS

Home | Current Version | Previous Version | Text Only | Print | Product List | Glossary On
Versions: 1 2 3 4 5 6 7 8 9 10 11 12
491
FTUS45 KRIW 261136
TAFCPR
TAF
KCPR 261136Z 2612/2712 06008KT P6SM BKN060
     FM261600 06012KT P6SM VCTS SCT030CB OVC050
     FM262300 03016G26KT 5SM -RA VCTS OVC025CB
     FM270200 01009KT P6SM VCSH BKN030=

USA.gov is the U.S. government's official web portal to all federal, state and local government web resources and services.